Tzoanna Vi — SYHY — position and weather

sailwx.info

Track history (hours):
 
Tides and Currents Weather Stations Pressure Air Temp Water Temp Dewpoint Dewpoint Depression Visibility Wind Speed Wind Dir Waves Ship Positions

Tzoanna Vi

Last reported at 2014-Sep-12 11:26 UTC. Time now 2014-Sep-16 03:01 UTC.
Position N 37°40' E 023°42'.

Length 84 m; draft 5.5 m.

Type: Cargo ship. MMSI: 237991700.

Date/timePositionNaut miles runAvg speedWind from/ knotsBaromVisibWave heightAir tempDewpointWater temp
2014-Sep-12 11:26N 37°40' E 023°42'910.1
2014-Sep-12 10:34N 37°48' E 023°38'10 9.5
2014-Sep-12 09:33N 37°57' E 023°35'5 1.3
2014-Sep-12 05:29N 38°02' E 023°35'0 0.0
2014-Sep-12 01:12N 38°02' E 023°35'0 0.0
2014-Sep-11 19:33N 38°02' E 023°35'0 0.0
2014-Sep-11 18:18N 38°02' E 023°35'0 0.0
2014-Sep-11 13:09N 38°02' E 023°35'0 0.0
2014-Sep-11 12:23N 38°02' E 023°35'0 0.0
2014-Sep-11 11:17N 38°02' E 023°35'0 0.0
2014-Sep-11 09:29N 38°02' E 023°35'0 0.0
2014-Sep-11 07:30N 38°02' E 023°35'0 0.0
2014-Sep-11 06:21N 38°02' E 023°35'4 1.5
2014-Sep-11 03:31N 37°58' E 023°33'6 6.4
2014-Sep-11 02:33N 37°54' E 023°38'7 7.3
2014-Sep-11 01:33N 37°47' E 023°42'56 7.9
2014-Sep-10 18:24N 36°57' E 024°14'15 8.1
2014-Sep-10 16:32N 36°44' E 024°24'3 0.2
2014-Sep-10 02:31N 36°43' E 024°28'0 0.0
2014-Sep-10 01:25N 36°43' E 024°28'0 0.0
2014-Sep-10 00:31N 36°43' E 024°28'0 0.0
2014-Sep-09 21:16N 36°43' E 024°28'0 0.0
2014-Sep-09 15:25N 36°43' E 024°28'5 5.2
2014-Sep-09 14:29N 36°45' E 024°23'9 9.5
2014-Sep-09 13:33N 36°54' E 024°22'10 9.7
2014-Sep-09 12:33N 37°04' E 024°21'1010.2
2014-Sep-09 11:33N 37°14' E 024°20'1010.1
2014-Sep-09 10:33N 37°24' E 024°19'1010.2
2014-Sep-09 09:33N 37°34' E 024°24'10 9.7
2014-Sep-09 08:33N 37°43' E 024°28'10 9.3
2014-Sep-09 07:31N 37°52' E 024°32'4 0.1
2014-Sep-07 07:16N 37°51' E 024°38'6 8.1
2014-Sep-07 06:33N 37°45' E 024°37'8 8.5
2014-Sep-07 05:33N 37°37' E 024°38'9 8.8
2014-Sep-07 04:33N 37°28' E 024°41'9 8.6
2014-Sep-07 03:33N 37°20' E 024°44'8 8.3
2014-Sep-07 02:33N 37°12' E 024°46'8 8.5
2014-Sep-07 01:33N 37°04' E 024°49'8 8.5
2014-Sep-07 00:33N 36°55' E 024°51'9 8.5
2014-Sep-06 23:33N 36°47' E 024°55'8 8.4
2014-Sep-06 22:33N 36°39' E 024°57'8 8.1
2014-Sep-06 21:33N 36°32' E 025°02'8 8.3
2014-Sep-06 20:33N 36°25' E 025°07'8 8.0
2014-Sep-06 19:33N 36°18' E 025°12'8 8.0
2014-Sep-06 18:33N 36°11' E 025°16'8 8.1
2014-Sep-06 17:33N 36°04' E 025°21'8 8.3
2014-Sep-06 16:33N 35°56' E 025°26'8 8.4
2014-Sep-06 15:33N 35°49' E 025°31'9 8.4
2014-Sep-06 14:32N 35°41' E 025°36'24 0.5
2014-Sep-04 18:20N 35°38' E 025°07'7 8.3
2014-Sep-04 17:32N 35°44' E 025°06'8 8.2
2014-Sep-04 16:32N 35°53' E 025°05'9 8.7
2014-Sep-04 15:32N 36°01' E 025°04'9 8.9
2014-Sep-04 14:33N 36°10' E 025°03'8 8.3
2014-Sep-04 13:32N 36°18' E 025°01'8 8.6
2014-Sep-04 12:33N 36°27' E 024°60'9 8.6
2014-Sep-04 11:33N 36°35' E 024°59'9 8.6
2014-Sep-04 10:33N 36°43' E 024°56'8 8.1
2014-Sep-04 09:33N 36°51' E 024°53'8 8.3
2014-Sep-04 08:32N 36°59' E 024°50'8 8.3
2014-Sep-04 07:33N 37°07' E 024°47'8 8.5
2014-Sep-04 06:33N 37°16' E 024°45'8 8.2
2014-Sep-04 05:33N 37°23' E 024°42'8 8.3
2014-Sep-04 04:33N 37°31' E 024°39'8 8.5
2014-Sep-04 03:33N 37°40' E 024°38'12 8.5
2014-Sep-04 02:11N 37°51' E 024°38'  
Track history (hours):
 
Tides and Currents Weather Stations Pressure Air Temp Water Temp Dewpoint Dewpoint Depression Visibility Wind Speed Wind Dir Waves Ship Positions

Tzoanna Vi

Last reported at 2014-Sep-12 11:26 UTC. Time now 2014-Sep-16 03:01 UTC.
Position N 37°40' E 023°42'.

Length 84 m; draft 5.5 m.

Type: Cargo ship. MMSI: 237991700.

Date/timePositionNaut miles runAvg speedWind from/ knotsBaromVisibWave heightAir tempDewpointWater temp
2014-Sep-12 11:26N 37°40' E 023°42'910.1
2014-Sep-12 10:34N 37°48' E 023°38'10 9.5
2014-Sep-12 09:33N 37°57' E 023°35'5 1.3
2014-Sep-12 05:29N 38°02' E 023°35'0 0.0
2014-Sep-12 01:12N 38°02' E 023°35'0 0.0
2014-Sep-11 19:33N 38°02' E 023°35'0 0.0
2014-Sep-11 18:18N 38°02' E 023°35'0 0.0
2014-Sep-11 13:09N 38°02' E 023°35'0 0.0
2014-Sep-11 12:23N 38°02' E 023°35'0 0.0
2014-Sep-11 11:17N 38°02' E 023°35'0 0.0
2014-Sep-11 09:29N 38°02' E 023°35'0 0.0
2014-Sep-11 07:30N 38°02' E 023°35'0 0.0
2014-Sep-11 06:21N 38°02' E 023°35'4 1.5
2014-Sep-11 03:31N 37°58' E 023°33'6 6.4
2014-Sep-11 02:33N 37°54' E 023°38'7 7.3
2014-Sep-11 01:33N 37°47' E 023°42'56 7.9
2014-Sep-10 18:24N 36°57' E 024°14'15 8.1
2014-Sep-10 16:32N 36°44' E 024°24'3 0.2
2014-Sep-10 02:31N 36°43' E 024°28'0 0.0
2014-Sep-10 01:25N 36°43' E 024°28'0 0.0
2014-Sep-10 00:31N 36°43' E 024°28'0 0.0
2014-Sep-09 21:16N 36°43' E 024°28'0 0.0
2014-Sep-09 15:25N 36°43' E 024°28'5 5.2
2014-Sep-09 14:29N 36°45' E 024°23'9 9.5
2014-Sep-09 13:33N 36°54' E 024°22'10 9.7
2014-Sep-09 12:33N 37°04' E 024°21'1010.2
2014-Sep-09 11:33N 37°14' E 024°20'1010.1
2014-Sep-09 10:33N 37°24' E 024°19'1010.2
2014-Sep-09 09:33N 37°34' E 024°24'10 9.7
2014-Sep-09 08:33N 37°43' E 024°28'10 9.3
2014-Sep-09 07:31N 37°52' E 024°32'4 0.1
2014-Sep-07 07:16N 37°51' E 024°38'6 8.1
2014-Sep-07 06:33N 37°45' E 024°37'8 8.5
2014-Sep-07 05:33N 37°37' E 024°38'9 8.8
2014-Sep-07 04:33N 37°28' E 024°41'9 8.6
2014-Sep-07 03:33N 37°20' E 024°44'8 8.3
2014-Sep-07 02:33N 37°12' E 024°46'8 8.5
2014-Sep-07 01:33N 37°04' E 024°49'8 8.5
2014-Sep-07 00:33N 36°55' E 024°51'9 8.5
2014-Sep-06 23:33N 36°47' E 024°55'8 8.4
2014-Sep-06 22:33N 36°39' E 024°57'8 8.1
2014-Sep-06 21:33N 36°32' E 025°02'8 8.3
2014-Sep-06 20:33N 36°25' E 025°07'8 8.0
2014-Sep-06 19:33N 36°18' E 025°12'8 8.0
2014-Sep-06 18:33N 36°11' E 025°16'8 8.1
2014-Sep-06 17:33N 36°04' E 025°21'8 8.3
2014-Sep-06 16:33N 35°56' E 025°26'8 8.4
2014-Sep-06 15:33N 35°49' E 025°31'9 8.4
2014-Sep-06 14:32N 35°41' E 025°36'24 0.5
2014-Sep-04 18:20N 35°38' E 025°07'7 8.3
2014-Sep-04 17:32N 35°44' E 025°06'8 8.2
2014-Sep-04 16:32N 35°53' E 025°05'9 8.7
2014-Sep-04 15:32N 36°01' E 025°04'9 8.9
2014-Sep-04 14:33N 36°10' E 025°03'8 8.3
2014-Sep-04 13:32N 36°18' E 025°01'8 8.6
2014-Sep-04 12:33N 36°27' E 024°60'9 8.6
2014-Sep-04 11:33N 36°35' E 024°59'9 8.6
2014-Sep-04 10:33N 36°43' E 024°56'8 8.1
2014-Sep-04 09:33N 36°51' E 024°53'8 8.3
2014-Sep-04 08:32N 36°59' E 024°50'8 8.3
2014-Sep-04 07:33N 37°07' E 024°47'8 8.5
2014-Sep-04 06:33N 37°16' E 024°45'8 8.2
2014-Sep-04 05:33N 37°23' E 024°42'8 8.3
2014-Sep-04 04:33N 37°31' E 024°39'8 8.5
2014-Sep-04 03:33N 37°40' E 024°38'12 8.5
2014-Sep-04 02:11N 37°51' E 024°38'  

Dump ship's entire track history